Time;durP1;ratioP1;P1;durP2;ratioP2;P2;SDS_P1;SDS_P2;PMS_P1;PMS_P2;Temp;Humidity;BMP_temperature;BMP_pressure;BME280_temperature;BME280_humidity;BME280_pressure;Samples;Min_cycle;Max_cycle;Signal;HPM_P1;HPM_P2
2024/04/22 00:01:44;;;;;;;;;;;;;;;20.24;29.33;102153.59;4572230;26;19931;-72
2024/04/22 00:03:46;;;;;;;;;;;;;;;20.23;29.16;102156.34;4572198;25;20061;-72
2024/04/22 00:05:54;;;;;;;;;;;;;;;20.23;29.71;102151.00;4572106;26;19992;-71
2024/04/22 00:07:56;;;;;;;;;;;;;;;20.23;29.30;102149.22;4572564;25;20348;-70
2024/04/22 00:09:58;;;;;;;;;;;;;;;20.23;29.15;102153.66;4572227;25;19927;-71
2024/04/22 00:12:00;;;;;;;;;;;;;;;20.22;29.74;102149.25;4572108;26;20019;-71
2024/04/22 00:14:02;;;;;;;;;;;;;;;20.20;29.66;102149.34;4571908;25;19934;-71
2024/04/22 00:16:04;;;;;;;;;;;;;;;20.24;29.64;102155.41;4571957;26;19936;-71
2024/04/22 00:18:06;;;;;;;;;;;;;;;20.25;29.25;102157.97;4572308;25;19927;-72
2024/04/22 00:20:10;;;;;;;;;;;;;;;20.25;29.26;102157.13;4570828;25;19931;-71
2024/04/22 00:22:12;;;;;;;;;;;;;;;20.24;29.44;102153.59;4571644;25;19936;-72
2024/04/22 00:24:14;;;;;;;;;;;;;;;20.20;29.55;102151.19;4572175;26;19935;-71
2024/04/22 00:26:16;;;;;;;;;;;;;;;20.21;29.81;102155.56;4571972;26;19943;-71
2024/04/22 00:28:17;;;;;;;;;;;;;;;20.20;29.93;102148.50;4570021;25;20030;-70
2024/04/22 00:30:19;;;;;;;;;;;;;;;20.20;29.20;102149.34;4572143;25;20003;-72
2024/04/22 00:32:21;;;;;;;;;;;;;;;20.19;29.41;102152.13;4571751;26;20014;-71
2024/04/22 00:34:23;;;;;;;;;;;;;;;20.18;29.19;102145.88;4571927;25;19935;-72
2024/04/22 00:36:25;;;;;;;;;;;;;;;20.20;28.91;102146.69;4571863;25;19936;-72
2024/04/22 00:38:27;;;;;;;;;;;;;;;20.21;29.70;102155.56;4570271;26;19927;-72
2024/04/22 00:40:29;;;;;;;;;;;;;;;20.19;29.47;102150.28;4572006;25;19939;-71
2024/04/22 00:42:34;;;;;;;;;;;;;;;20.18;29.85;102148.56;4571390;26;19935;-72
2024/04/22 00:44:39;;;;;;;;;;;;;;;20.19;29.92;102146.78;4572217;25;19942;-72
2024/04/22 00:46:41;;;;;;;;;;;;;;;20.19;29.52;102147.63;4571659;25;19935;-72
2024/04/22 00:48:43;;;;;;;;;;;;;;;20.18;29.27;102147.72;4563553;26;19954;-72
2024/04/22 00:50:46;;;;;;;;;;;;;;;20.16;29.78;102145.13;4571927;26;19931;-72
2024/04/22 00:52:48;;;;;;;;;;;;;;;20.15;29.92;102146.06;4571662;25;19977;-71
2024/04/22 00:54:49;;;;;;;;;;;;;;;20.16;29.48;102153.16;4571680;25;19935;-71
2024/04/22 00:56:52;;;;;;;;;;;;;;;20.15;29.42;102154.09;4571194;25;19935;-72
2024/04/22 00:58:53;;;;;;;;;;;;;;;20.15;29.74;102153.25;4569716;26;19935;-72
2024/04/22 01:00:56;;;;;;;;;;;;;;;20.14;29.80;102152.34;4572042;25;19935;-72
2024/04/22 01:02:58;;;;;;;;;;;;;;;20.14;29.86;102148.84;4571230;25;19935;-72
2024/04/22 01:05:00;;;;;;;;;;;;;;;20.14;29.35;102147.00;4570033;26;20003;-71
2024/04/22 01:07:03;;;;;;;;;;;;;;;20.14;29.77;102149.69;4571983;25;20334;-71
2024/04/22 01:09:05;;;;;;;;;;;;;;;20.14;29.75;102149.69;4571281;25;19928;-72
2024/04/22 01:11:07;;;;;;;;;;;;;;;20.14;30.15;102155.03;4571007;26;19984;-71
2024/04/22 01:13:09;;;;;;;;;;;;;;;20.10;29.55;102148.97;4571227;25;20510;-72
2024/04/22 01:15:11;;;;;;;;;;;;;;;20.11;29.49;102149.88;4571417;25;19943;-72
2024/04/22 01:17:13;;;;;;;;;;;;;;;20.11;29.46;102152.53;4570003;26;19932;-72
2024/04/22 01:19:14;;;;;;;;;;;;;;;20.09;30.17;102154.41;4571048;26;19938;-72
2024/04/22 01:21:20;;;;;;;;;;;;;;;20.08;29.41;102152.69;4571249;26;20377;-72
2024/04/22 01:23:22;;;;;;;;;;;;;;;20.08;29.46;102148.19;4571091;25;20007;-72
2024/04/22 01:25:24;;;;;;;;;;;;;;;20.08;29.82;102156.19;4570685;25;20262;-72
2024/04/22 01:27:26;;;;;;;;;;;;;;;20.08;29.69;102150.88;4571356;26;19999;-71
2024/04/22 01:29:28;;;;;;;;;;;;;;;20.10;29.62;102137.44;4571034;25;20286;-72
2024/04/22 01:31:30;;;;;;;;;;;;;;;20.08;29.40;102137.50;4571169;26;19942;-72
2024/04/22 01:33:31;;;;;;;;;;;;;;;20.10;29.75;102132.09;4569254;26;20369;-73
2024/04/22 01:35:36;;;;;;;;;;;;;;;20.09;30.16;102139.25;4570978;25;19927;-71
2024/04/22 01:37:38;;;;;;;;;;;;;;;20.09;30.02;102139.25;4571471;26;19985;-72
2024/04/22 01:39:40;;;;;;;;;;;;;;;20.09;29.50;102141.06;4571525;26;19927;-72
2024/04/22 01:41:42;;;;;;;;;;;;;;;20.06;29.82;102142.09;4574200;25;19933;-72
2024/04/22 01:43:44;;;;;;;;;;;;;;;20.06;29.51;102135.88;4573819;26;19970;-72
2024/04/22 01:45:46;;;;;;;;;;;;;;;20.03;30.00;102134.22;4573887;26;19939;-72
2024/04/22 01:47:48;;;;;;;;;;;;;;;20.04;29.87;102138.63;4574135;26;19934;-71
2024/04/22 01:49:50;;;;;;;;;;;;;;;20.03;29.73;102126.22;4573834;26;20287;-72
2024/04/22 01:51:52;;;;;;;;;;;;;;;20.05;29.64;102142.16;4574059;25;19935;-72
2024/04/22 01:53:54;;;;;;;;;;;;;;;20.03;30.12;102141.38;4573911;25;19931;-72
2024/04/22 01:55:56;;;;;;;;;;;;;;;20.05;29.64;102135.03;4566687;26;19984;-72
2024/04/22 01:58:01;;;;;;;;;;;;;;;20.05;29.45;102127.00;4573978;25;20000;-71
2024/04/22 02:00:03;;;;;;;;;;;;;;;20.05;29.57;102131.47;4573686;26;19939;-72
2024/04/22 02:02:05;;;;;;;;;;;;;;;20.03;30.34;102128.03;4572940;25;19935;-72
2024/04/22 02:04:07;;;;;;;;;;;;;;;20.02;30.10;102127.16;4570569;25;19934;-72
2024/04/22 02:06:09;;;;;;;;;;;;;;;20.03;29.53;102112.88;4573837;25;19936;-71
2024/04/22 02:08:11;;;;;;;;;;;;;;;20.02;29.92;102115.63;4573941;25;19944;-72
2024/04/22 02:10:13;;;;;;;;;;;;;;;20.02;29.87;102110.28;4572924;25;19927;-71
2024/04/22 02:12:25;;;;;;;;;;;;;;;20.00;30.41;102106.81;4573725;26;19927;-73
2024/04/22 02:14:27;;;;;;;;;;;;;;;19.99;29.96;102102.41;4573736;25;19942;-72
2024/04/22 02:16:29;;;;;;;;;;;;;;;20.00;29.82;102107.72;4573443;26;19931;-72
2024/04/22 02:18:34;;;;;;;;;;;;;;;19.99;30.06;102105.97;4573893;25;19939;-71
2024/04/22 02:20:36;;;;;;;;;;;;;;;20.00;29.81;102106.81;4573421;26;19939;-72
2024/04/22 02:22:37;;;;;;;;;;;;;;;20.02;29.69;102107.63;4582845;25;20253;-71
2024/04/22 02:24:39;;;;;;;;;;;;;;;20.01;30.03;102100.53;4604156;25;20270;-71
2024/04/22 02:26:41;;;;;;;;;;;;;;;20.02;29.97;102097.78;4574131;25;19931;-72
2024/04/22 02:28:43;;;;;;;;;;;;;;;20.00;29.71;102102.38;4573593;25;19935;-70
2024/04/22 02:30:45;;;;;;;;;;;;;;;20.00;29.86;102102.38;4573215;26;20003;-71
2024/04/22 02:32:47;;;;;;;;;;;;;;;19.98;29.76;102104.25;4573755;25;19935;-72
2024/04/22 02:34:50;;;;;;;;;;;;;;;19.98;29.88;102109.59;4573609;25;19938;-72
2024/04/22 02:36:54;;;;;;;;;;;;;;;19.96;30.47;102106.13;4573243;25;19959;-72
2024/04/22 02:38:56;;;;;;;;;;;;;;;19.97;30.14;102104.34;4573039;25;19934;-72
2024/04/22 02:40:58;;;;;;;;;;;;;;;19.98;29.64;102104.25;4573375;25;19942;-71
2024/04/22 02:43:00;;;;;;;;;;;;;;;19.97;29.87;102105.19;4573356;26;19938;-72
2024/04/22 02:45:02;;;;;;;;;;;;;;;19.97;30.45;102107.84;4573472;26;19935;-71
2024/04/22 02:47:04;;;;;;;;;;;;;;;19.96;30.30;102103.44;4573055;25;19972;-71
2024/04/22 02:49:06;;;;;;;;;;;;;;;19.98;29.80;102112.25;4573509;25;19934;-72
2024/04/22 02:51:08;;;;;;;;;;;;;;;19.97;29.87;102112.34;4571724;25;19997;-71
2024/04/22 02:53:10;;;;;;;;;;;;;;;19.93;30.38;102112.50;4572781;26;19939;-72
2024/04/22 02:55:15;;;;;;;;;;;;;;;19.92;29.91;102110.75;4573146;26;20284;-71
2024/04/22 02:57:17;;;;;;;;;;;;;;;19.91;30.28;102116.19;4572951;25;20369;-72
2024/04/22 02:59:18;;;;;;;;;;;;;;;19.90;30.07;102111.78;4573134;25;20381;-72
2024/04/22 03:01:20;;;;;;;;;;;;;;;19.92;29.92;102120.59;4572947;25;20578;-72
2024/04/22 03:03:22;;;;;;;;;;;;;;;19.90;30.64;102117.13;4573222;25;19927;-72
2024/04/22 03:05:25;;;;;;;;;;;;;;;19.93;30.28;102122.31;4573104;25;20007;-72
2024/04/22 03:07:27;;;;;;;;;;;;;;;19.91;30.38;102122.38;4572501;26;19936;-71
2024/04/22 03:09:33;;;;;;;;;;;;;;;19.91;30.61;102125.06;4573166;25;19932;-71
2024/04/22 03:11:34;;;;;;;;;;;;;;;19.90;30.23;102123.34;4572736;25;19935;-73
2024/04/22 03:13:36;;;;;;;;;;;;;;;19.92;29.85;102124.13;4572963;26;19964;-73
2024/04/22 03:15:39;;;;;;;;;;;;;;;19.90;30.50;102122.47;4573090;25;19931;-73
2024/04/22 03:17:40;;;;;;;;;;;;;;;19.91;29.82;102117.03;4572626;25;20291;-72
2024/04/22 03:19:43;;;;;;;;;;;;;;;19.89;30.63;102112.72;4572986;26;19967;-72
2024/04/22 03:21:46;;;;;;;;;;;;;;;19.89;29.89;102104.72;4572383;26;19935;-72
2024/04/22 03:23:48;;;;;;;;;;;;;;;19.87;30.73;102109.31;4576944;25;19931;-71
2024/04/22 03:25:49;;;;;;;;;;;;;;;19.87;30.12;102109.31;4572875;26;19942;-71
2024/04/22 03:27:51;;;;;;;;;;;;;;;19.86;30.56;102105.75;4572724;25;19935;-72
2024/04/22 03:29:53;;;;;;;;;;;;;;;19.88;30.02;102111.00;4572844;25;19931;-71
2024/04/22 03:31:55;;;;;;;;;;;;;;;19.87;30.40;102103.97;4572764;26;20259;-72
2024/04/22 03:33:58;;;;;;;;;;;;;;;19.88;29.97;102103.00;4570726;26;19963;-72
2024/04/22 03:36:01;;;;;;;;;;;;;;;19.88;29.91;102103.00;4572536;25;20281;-72
2024/04/22 03:38:03;;;;;;;;;;;;;;;19.86;30.04;102105.75;4572381;25;20291;-72
2024/04/22 03:40:05;;;;;;;;;;;;;;;19.87;29.91;102107.47;4572787;26;19935;-72
2024/04/22 03:42:08;;;;;;;;;;;;;;;19.86;29.96;102108.41;4572819;25;19939;-72
2024/04/22 03:44:10;;;;;;;;;;;;;;;19.85;30.69;102111.19;4572245;25;20315;-72
2024/04/22 03:50:52;;;;;;;;;;;;;;;19.82;30.17;102114.84;4572231;26;20389;-73
2024/04/22 03:52:55;;;;;;;;;;;;;;;19.83;30.22;102110.34;4572304;25;20356;-71
2024/04/22 03:54:57;;;;;;;;;;;;;;;19.84;30.04;102115.63;4572434;25;20293;-72
2024/04/22 03:56:59;;;;;;;;;;;;;;;19.84;30.28;102115.63;4572815;25;19935;-72
2024/04/22 03:59:00;;;;;;;;;;;;;;;19.84;29.88;102120.97;4572187;26;19928;-73
2024/04/22 04:01:02;;;;;;;;;;;;;;;19.84;30.61;102131.66;4572513;26;19931;-72
2024/04/22 04:03:04;;;;;;;;;;;;;;;19.84;30.79;102123.66;4572151;25;20001;-73
2024/04/22 04:05:06;;;;;;;;;;;;;;;19.84;30.18;102117.47;4571812;25;20274;-73
2024/04/22 04:07:08;;;;;;;;;;;;;;;19.82;30.03;102112.19;4572689;25;19931;-72
2024/04/22 04:09:10;;;;;;;;;;;;;;;19.83;30.04;102119.25;4572090;26;19939;-73
2024/04/22 04:11:12;;;;;;;;;;;;;;;19.79;30.15;102115.88;4572300;25;19943;-72
2024/04/22 04:13:17;;;;;;;;;;;;;;;19.79;30.87;102115.88;4572387;25;19998;-72
2024/04/22 04:15:19;;;;;;;;;;;;;;;19.79;30.13;102123.88;4570442;26;19932;-73
2024/04/22 04:17:22;;;;;;;;;;;;;;;19.78;30.20;102126.59;4572321;25;19999;-73
2024/04/22 04:19:25;;;;;;;;;;;;;;;19.78;30.71;102111.47;4569989;25;19938;-73
2024/04/22 04:21:30;;;;;;;;;;;;;;;19.79;30.44;102112.31;4572180;25;19943;-73
2024/04/22 04:23:32;;;;;;;;;;;;;;;19.77;30.59;102109.75;4595586;25;20286;-73
2024/04/22 04:25:34;;;;;;;;;;;;;;;19.79;30.69;102113.19;4574222;25;19942;-73
2024/04/22 04:27:36;;;;;;;;;;;;;;;19.77;30.43;102107.06;4572382;26;19999;-72
2024/04/22 04:29:38;;;;;;;;;;;;;;;19.76;30.75;102105.34;4571763;26;19931;-72
2024/04/22 04:31:40;;;;;;;;;;;;;;;19.76;30.75;102118.69;4572286;25;19935;-73
2024/04/22 04:33:42;;;;;;;;;;;;;;;19.75;30.82;102119.63;4572024;25;19927;-73
2024/04/22 04:35:44;;;;;;;;;;;;;;;19.75;30.20;102110.78;4571848;26;19931;-73
2024/04/22 04:37:50;;;;;;;;;;;;;;;19.75;30.02;102119.63;4572207;25;19935;-72
2024/04/22 04:39:52;;;;;;;;;;;;;;;19.74;30.52;102117.91;4572105;25;19935;-72
2024/04/22 04:41:53;;;;;;;;;;;;;;;19.72;30.36;102119.81;4571927;26;19935;-72
2024/04/22 04:43:55;;;;;;;;;;;;;;;19.72;30.73;102119.81;4571967;25;19981;-73
2024/04/22 04:45:57;;;;;;;;;;;;;;;19.74;30.55;102117.91;4571763;25;19935;-72
2024/04/22 04:47:59;;;;;;;;;;;;;;;19.75;30.84;102116.97;4571878;25;19935;-73
2024/04/22 04:50:03;;;;;;;;;;;;;;;19.76;30.82;102113.34;4571105;25;19936;-72
2024/04/22 04:52:05;;;;;;;;;;;;;;;19.76;30.25;102109.84;4571861;25;19931;-72
2024/04/22 04:54:07;;;;;;;;;;;;;;;19.76;30.61;102128.50;4571889;26;19940;-72
2024/04/22 04:56:08;;;;;;;;;;;;;;;19.74;30.81;102133.06;4571635;25;19943;-72
2024/04/22 04:58:11;;;;;;;;;;;;;;;19.74;30.34;102136.56;4571917;25;20274;-72
2024/04/22 05:00:13;;;;;;;;;;;;;;;19.73;30.11;102136.66;4571742;25;19942;-72
2024/04/22 05:02:14;;;;;;;;;;;;;;;19.72;30.98;102140.28;4571778;26;19931;-72
2024/04/22 05:04:16;;;;;;;;;;;;;;;19.72;30.29;102137.59;4571103;25;19927;-72
2024/04/22 05:06:18;;;;;;;;;;;;;;;19.71;30.53;102141.22;4571429;25;20353;-72
2024/04/22 05:08:21;;;;;;;;;;;;;;;19.72;30.27;102146.50;4571655;26;19961;-73
2024/04/22 05:10:23;;;;;;;;;;;;;;;19.72;30.65;102140.28;4571168;25;20000;-72
2024/04/22 05:12:25;;;;;;;;;;;;;;;19.73;30.36;102140.22;4571526;25;19927;-72
2024/04/22 05:14:26;;;;;;;;;;;;;;;19.74;30.26;102139.25;4570553;26;19935;-73
2024/04/22 05:16:28;;;;;;;;;;;;;;;19.73;30.66;102134.00;4571222;26;19942;-73
2024/04/22 05:18:30;;;;;;;;;;;;;;;19.73;30.15;102137.56;4569325;26;20371;-72
2024/04/22 05:20:32;;;;;;;;;;;;;;;19.73;30.15;102142.00;4571485;26;19934;-72
2024/04/22 05:22:34;;;;;;;;;;;;;;;19.72;30.55;102138.50;4571280;25;19935;-72
2024/04/22 05:24:36;;;;;;;;;;;;;;;19.71;30.69;102133.22;4571309;26;19943;-72
2024/04/22 05:26:37;;;;;;;;;;;;;;;19.69;30.66;102130.63;4571217;25;20290;-73
2024/04/22 05:28:40;;;;;;;;;;;;;;;19.69;30.51;102130.63;4571394;25;20003;-72
2024/04/22 05:30:41;;;;;;;;;;;;;;;19.70;30.34;102121.69;4569841;26;20046;-72
2024/04/22 05:32:44;;;;;;;;;;;;;;;19.71;30.16;102125.19;4570461;26;19928;-72
2024/04/22 05:37:06;;;;;;;;;;;;;;;19.72;30.24;102126.94;4571027;26;20369;-73
2024/04/22 05:39:09;;;;;;;;;;;;;;;19.72;30.15;102130.47;4571101;26;20365;-71
2024/04/22 05:41:11;;;;;;;;;;;;;;;19.74;30.74;102141.06;4571305;26;19946;-72
2024/04/22 05:43:13;;;;;;;;;;;;;;;19.74;30.93;102143.75;4570948;25;20290;-71
2024/04/22 05:45:14;;;;;;;;;;;;;;;19.72;30.30;102150.94;4571020;25;19939;-71
2024/04/22 05:47:16;;;;;;;;;;;;;;;19.71;30.45;102147.44;4570409;25;20441;-71
2024/04/22 05:49:21;;;;;;;;;;;;;;;19.71;30.20;102151.88;4570948;26;20360;-72
2024/04/22 05:51:23;;;;;;;;;;;;;;;19.71;30.24;102159.91;4571031;25;20000;-72
2024/04/22 05:53:25;;;;;;;;;;;;;;;19.69;30.42;102159.97;4570828;26;19939;-72
2024/04/22 05:55:27;;;;;;;;;;;;;;;19.72;30.60;102157.16;4571187;25;20332;-72
2024/04/22 05:57:28;;;;;;;;;;;;;;;19.71;30.25;102157.22;4570792;26;20055;-73
2024/04/22 05:59:30;;;;;;;;;;;;;;;19.71;30.20;102159.91;4570871;26;20016;-73
2024/04/22 06:01:32;;;;;;;;;;;;;;;19.70;30.66;102158.19;4570635;25;19932;-72
2024/04/22 06:03:34;;;;;;;;;;;;;;;19.71;30.27;102163.44;4570432;26;19939;-72
2024/04/22 06:05:36;;;;;;;;;;;;;;;19.71;30.25;102165.22;4570918;26;19932;-73
2024/04/22 06:07:38;;;;;;;;;;;;;;;19.71;30.28;102165.22;4570694;26;19999;-73
2024/04/22 06:09:40;;;;;;;;;;;;;;;19.69;30.95;102161.81;4570568;25;19942;-72
2024/04/22 06:11:42;;;;;;;;;;;;;;;19.69;30.86;102168.00;4570644;25;20110;-72
2024/04/22 06:14:03;;;;;;;;;;;;;;;19.68;30.88;102170.75;4568970;26;19939;-72
2024/04/22 06:16:05;;;;;;;;;;;;;;;19.67;30.95;102164.53;4570210;26;19931;-72
2024/04/22 06:18:07;;;;;;;;;;;;;;;19.66;30.64;102162.81;4570187;26;19934;-72
2024/04/22 06:20:11;;;;;;;;;;;;;;;19.64;30.46;102168.22;4570532;26;19939;-72
2024/04/22 06:22:13;;;;;;;;;;;;;;;19.64;30.31;102172.72;4573228;25;19943;-73
2024/04/22 06:24:15;;;;;;;;;;;;;;;19.64;30.38;102164.69;4576719;25;19939;-72
2024/04/22 06:26:17;;;;;;;;;;;;;;;19.64;30.74;102160.22;4572658;26;19943;-72
2024/04/22 06:28:21;;;;;;;;;;;;;;;19.63;30.36;102158.47;4573360;25;19935;-72
2024/04/22 06:30:23;;;;;;;;;;;;;;;19.64;30.65;102160.22;4571470;26;20004;-73
2024/04/22 06:32:25;;;;;;;;;;;;;;;19.66;30.24;102161.94;4573893;25;20003;-72
2024/04/22 06:34:27;;;;;;;;;;;;;;;19.67;30.22;102163.69;4573370;25;20003;-73
2024/04/22 06:36:29;;;;;;;;;;;;;;;19.67;30.18;102166.34;4573376;26;20003;-72
2024/04/22 06:38:31;;;;;;;;;;;;;;;19.67;30.57;102159.19;4573241;25;19939;-72
2024/04/22 06:40:32;;;;;;;;;;;;;;;19.67;30.76;102161.84;4573335;26;20295;-70
2024/04/22 06:42:34;;;;;;;;;;;;;;;19.65;30.32;102161.09;4573625;25;20361;-71
2024/04/22 06:44:36;;;;;;;;;;;;;;;19.66;30.82;102159.28;4572797;26;19928;-72
2024/04/22 06:46:41;;;;;;;;;;;;;;;19.66;30.63;102160.16;4573480;25;20040;-72
2024/04/22 06:48:43;;;;;;;;;;;;;;;19.68;30.47;102154.72;4573031;26;19934;-72
2024/04/22 06:50:45;;;;;;;;;;;;;;;19.68;30.70;102160.06;4573057;25;19942;-72
2024/04/22 06:52:47;;;;;;;;;;;;;;;19.67;30.71;102156.53;4573422;26;20350;-72
2024/04/22 06:54:49;;;;;;;;;;;;;;;19.69;30.98;102159.13;4572882;25;19932;-72
2024/04/22 06:56:51;;;;;;;;;;;;;;;19.69;30.75;102162.66;4572099;25;19943;-72
2024/04/22 06:58:52;;;;;;;;;;;;;;;19.69;30.22;102173.34;4572755;26;19932;-73
2024/04/22 07:00:54;;;;;;;;;;;;;;;19.68;30.34;102163.59;4572365;26;19935;-72
2024/04/22 07:02:56;;;;;;;;;;;;;;;19.68;30.04;102173.41;4573534;25;19935;-72
2024/04/22 07:04:58;;;;;;;;;;;;;;;19.64;30.45;102168.22;4572812;25;20373;-72
2024/04/22 07:07:00;;;;;;;;;;;;;;;19.65;30.03;102171.78;4573173;25;19946;-72
2024/04/22 07:09:09;;;;;;;;;;;;;;;19.65;30.84;102169.09;4573279;26;19935;-72
2024/04/22 07:11:11;;;;;;;;;;;;;;;19.63;30.20;102168.31;4570976;25;19940;-71
2024/04/22 07:13:14;;;;;;;;;;;;;;;19.64;31.00;102172.72;4570755;25;19991;-72
2024/04/22 07:15:17;;;;;;;;;;;;;;;19.66;30.57;102172.63;4572567;25;19984;-72
2024/04/22 07:17:19;;;;;;;;;;;;;;;19.66;30.29;102165.50;4573005;25;20352;-71
2024/04/22 07:19:21;;;;;;;;;;;;;;;19.65;30.63;102161.09;4571315;26;19939;-72
2024/04/22 07:21:23;;;;;;;;;;;;;;;19.65;30.44;102161.09;4572844;25;19943;-74
2024/04/22 07:23:25;;;;;;;;;;;;;;;19.66;30.13;102159.28;4592475;25;19990;-72
2024/04/22 07:25:27;;;;;;;;;;;;;;;19.65;30.17;102153.09;4592432;25;19936;-71
2024/04/22 07:27:29;;;;;;;;;;;;;;;19.64;30.29;102151.34;4572934;25;19934;-71
2024/04/22 07:29:31;;;;;;;;;;;;;;;19.64;30.92;102156.69;4572695;26;19943;-71
2024/04/22 07:31:33;;;;;;;;;;;;;;;19.63;30.86;102158.47;4572486;26;20094;-71
2024/04/22 07:33:35;;;;;;;;;;;;;;;19.66;30.69;102156.59;4570923;26;20365;-72
2024/04/22 07:35:43;;;;;;;;;;;;;;;19.65;30.96;102166.44;4572652;26;19935;-72
2024/04/22 07:37:47;;;;;;;;;;;;;;;19.67;30.47;102164.53;4572116;25;19958;-71
2024/04/22 07:39:50;;;;;;;;;;;;;;;19.66;30.62;102168.16;4570927;26;19934;-72
2024/04/22 07:41:54;;;;;;;;;;;;;;;19.69;30.15;102169.81;4572531;25;19984;-72
2024/04/22 07:43:56;;;;;;;;;;;;;;;19.71;30.15;102168.78;4572189;26;19938;-74
2024/04/22 07:46:01;;;;;;;;;;;;;;;19.74;30.40;102173.94;4572539;26;19942;-74
2024/04/22 07:48:03;;;;;;;;;;;;;;;19.76;30.28;102164.06;4572505;26;19931;-72
2024/04/22 07:50:05;;;;;;;;;;;;;;;19.76;30.48;102166.75;4570874;25;19928;-72
2024/04/22 07:52:07;;;;;;;;;;;;;;;19.76;30.04;102164.06;4571276;25;19931;-71
2024/04/22 07:54:09;;;;;;;;;;;;;;;19.78;30.06;102164.88;4572554;25;19932;-72
2024/04/22 07:56:11;;;;;;;;;;;;;;;19.78;30.70;102163.97;4572351;25;20293;-72
2024/04/22 07:58:13;;;;;;;;;;;;;;;19.79;30.85;102169.25;4571941;26;19942;-74
2024/04/22 08:00:17;;;;;;;;;;;;;;;19.77;30.41;102171.13;4572724;25;19934;-74
2024/04/22 08:02:19;;;;;;;;;;;;;;;19.75;30.06;102165.00;4572322;25;19934;-74
2024/04/22 08:04:21;;;;;;;;;;;;;;;19.75;30.88;102159.66;4572367;26;19935;-74
2024/04/22 08:06:26;;;;;;;;;;;;;;;19.77;30.75;102168.47;4572112;26;19977;-71
2024/04/22 08:08:30;;;;;;;;;;;;;;;19.76;30.02;102168.56;4570779;26;20293;-71
2024/04/22 08:10:31;;;;;;;;;;;;;;;19.77;30.38;102171.13;4572223;25;19995;-72
2024/04/22 08:12:36;;;;;;;;;;;;;;;19.76;30.80;102164.06;4571647;26;20653;-71
2024/04/22 08:14:39;;;;;;;;;;;;;;;19.78;30.11;102163.97;4572282;26;19962;-74
2024/04/22 08:16:40;;;;;;;;;;;;;;;19.78;30.21;102162.19;4572222;26;19931;-71
2024/04/22 08:18:42;;;;;;;;;;;;;;;19.75;30.73;102162.34;4565511;26;19935;-71
2024/04/22 08:20:44;;;;;;;;;;;;;;;19.76;30.06;102161.41;4572183;25;19931;-71
2024/04/22 08:22:46;;;;;;;;;;;;;;;19.76;30.46;102157.88;4575683;25;19934;-74
2024/04/22 08:24:48;;;;;;;;;;;;;;;19.73;30.79;102158.91;4572165;26;20333;-72
2024/04/22 08:26:52;;;;;;;;;;;;;;;19.74;30.49;102162.44;4571584;26;19935;-71
2024/04/22 08:28:55;;;;;;;;;;;;;;;19.72;30.10;102165.19;4570157;25;19935;-71
2024/04/22 08:31:01;;;;;;;;;;;;;;;19.74;29.94;102162.44;4572212;26;19936;-72
2024/04/22 08:33:03;;;;;;;;;;;;;;;19.77;30.59;102167.63;4571838;25;19931;-72
2024/04/22 08:35:05;;;;;;;;;;;;;;;19.76;30.29;102165.88;4572074;26;19931;-71
2024/04/22 08:37:07;;;;;;;;;;;;;;;19.75;29.91;102159.66;4572034;26;19938;-72
2024/04/22 08:39:10;;;;;;;;;;;;;;;19.76;29.88;102160.56;4569803;26;19936;-72
2024/04/22 08:41:14;;;;;;;;;;;;;;;19.77;30.37;102160.47;4541281;26;19932;-72
2024/04/22 08:43:17;;;;;;;;;;;;;;;19.76;30.59;102152.53;4555701;26;19936;-72
2024/04/22 08:45:19;;;;;;;;;;;;;;;19.79;30.39;102168.38;4571736;25;20038;-72
2024/04/22 08:47:21;;;;;;;;;;;;;;;19.77;30.52;102155.13;4570399;25;19992;-72
2024/04/22 08:49:23;;;;;;;;;;;;;;;19.77;30.28;102167.63;4570146;26;20401;-72
2024/04/22 08:51:25;;;;;;;;;;;;;;;19.78;29.95;102156.84;4571847;26;19984;-75
2024/04/22 08:53:27;;;;;;;;;;;;;;;19.78;29.94;102156.84;4571501;25;19952;-72
2024/04/22 08:55:29;;;;;;;;;;;;;;;19.84;30.03;102162.84;4571296;25;19927;-71
2024/04/22 08:57:31;;;;;;;;;;;;;;;19.82;29.98;102159.34;4571748;26;19936;-73
2024/04/22 08:59:33;;;;;;;;;;;;;;;19.79;30.37;102160.38;4571523;25;19939;-73
2024/04/22 09:01:42;;;;;;;;;;;;;;;19.79;30.17;102152.38;4571691;26;20004;-71
2024/04/22 09:03:44;;;;;;;;;;;;;;;19.78;30.60;102153.31;4569892;26;19936;-74
2024/04/22 09:05:46;;;;;;;;;;;;;;;19.73;30.16;102148.22;4571788;26;19943;-72
2024/04/22 09:07:52;;;;;;;;;;;;;;;19.71;30.24;102150.09;4571814;26;20317;-72
2024/04/22 09:09:55;;;;;;;;;;;;;;;19.68;30.17;102160.06;4570797;26;19950;-72
2024/04/22 09:12:19;;;;;;;;;;;;;;;19.67;30.41;102155.66;4541016;26;19949;-73
2024/04/22 09:14:25;;;;;;;;;;;;;;;19.66;30.47;102152.16;4556887;26;20397;-73
2024/04/22 09:16:29;;;;;;;;;;;;;;;19.66;30.48;102144.16;4571573;25;19931;-73
2024/04/22 09:18:33;;;;;;;;;;;;;;;19.65;30.59;102147.75;4571546;26;20327;-73
2024/04/22 09:20:36;;;;;;;;;;;;;;;19.66;30.22;102140.59;4571339;25;20273;-71
2024/04/22 09:22:38;;;;;;;;;;;;;;;19.64;30.24;102143.34;4580447;25;19942;-71
2024/04/22 09:24:39;;;;;;;;;;;;;;;19.63;30.61;102144.28;4586843;25;20247;-73
2024/04/22 09:26:41;;;;;;;;;;;;;;;19.63;30.68;102147.81;4571476;26;19936;-73
2024/04/22 09:28:45;;;;;;;;;;;;;;;19.63;30.85;102144.28;4571599;25;19935;-72
2024/04/22 09:30:51;;;;;;;;;;;;;;;19.62;30.74;102143.44;4569292;25;20004;-73
2024/04/22 09:32:59;;;;;;;;;;;;;;;19.66;30.93;102133.47;4571287;25;19935;-73
2024/04/22 09:35:10;;;;;;;;;;;;;;;19.70;30.87;102134.19;4570778;26;19935;-73
2024/04/22 09:37:16;;;;;;;;;;;;;;;19.75;30.28;102135.63;4569720;26;20391;-72
2024/04/22 09:39:19;;;;;;;;;;;;;;;19.77;30.77;102133.75;4570722;25;19935;-72
2024/04/22 09:41:21;;;;;;;;;;;;;;;19.83;30.31;102132.59;4571195;26;19995;-72
2024/04/22 09:43:23;;;;;;;;;;;;;;;19.88;29.97;102124.34;4569597;26;20009;-72
2024/04/22 09:45:25;;;;;;;;;;;;;;;19.89;30.20;102121.63;4570891;25;19939;-73
2024/04/22 09:47:29;;;;;;;;;;;;;;;19.90;30.26;102119.81;4571155;26;19927;-72
2024/04/22 09:49:36;;;;;;;;;;;;;;;19.93;30.48;102117.84;4571333;25;19938;-72
2024/04/22 09:51:38;;;;;;;;;;;;;;;19.93;30.41;102116.97;4568917;26;19939;-73
2024/04/22 09:53:40;;;;;;;;;;;;;;;19.98;30.30;102112.25;4570624;25;19939;-72
2024/04/22 09:55:43;;;;;;;;;;;;;;;19.99;30.36;102105.97;4570954;25;20346;-72
2024/04/22 09:57:46;;;;;;;;;;;;;;;19.99;30.26;102108.66;4571234;26;19932;-72
2024/04/22 09:59:50;;;;;;;;;;;;;;;20.00;29.93;102109.50;4569572;26;19988;-72
2024/04/22 10:01:52;;;;;;;;;;;;;;;19.99;29.83;102110.44;4573650;25;19942;-72
2024/04/22 10:03:54;;;;;;;;;;;;;;;20.01;29.46;102103.22;4574026;25;20474;-72
2024/04/22 10:05:56;;;;;;;;;;;;;;;20.05;29.61;102102.09;4573878;26;19935;-73
2024/04/22 10:08:02;;;;;;;;;;;;;;;20.08;29.60;102101.94;4573497;26;19939;-73
2024/04/22 10:10:07;;;;;;;;;;;;;;;20.08;29.51;102104.59;4573884;26;19949;-71
2024/04/22 10:12:09;;;;;;;;;;;;;;;20.07;29.69;102097.53;4573507;26;19935;-70
2024/04/22 10:14:16;;;;;;;;;;;;;;;20.06;29.71;102096.69;4543430;26;19928;-70
2024/04/22 10:16:19;;;;;;;;;;;;;;;20.08;29.24;102096.59;4554853;26;20417;-72
2024/04/22 10:18:21;;;;;;;;;;;;;;;20.06;29.89;102094.03;4573799;25;19939;-71
2024/04/22 10:20:29;;;;;;;;;;;;;;;20.04;29.79;102089.72;4573830;26;20317;-72
2024/04/22 10:22:36;;;;;;;;;;;;;;;20.03;29.65;102090.66;4572707;26;19984;-73
2024/04/22 10:24:39;;;;;;;;;;;;;;;20.05;29.39;102089.63;4573546;25;19973;-72
2024/04/22 10:26:42;;;;;;;;;;;;;;;20.06;29.67;102087.78;4573446;25;20409;-72
2024/04/22 10:29:02;;;;;;;;;;;;;;;20.11;29.20;102088.44;4574008;25;19928;-72
2024/04/22 10:31:04;;;;;;;;;;;;;;;20.11;29.67;102083.09;4573400;25;19939;-72
2024/04/22 10:33:06;;;;;;;;;;;;;;;20.15;29.05;102084.63;4573469;26;19928;-73
2024/04/22 10:35:08;;;;;;;;;;;;;;;20.14;29.31;102087.41;4573702;25;19939;-73
2024/04/22 10:37:10;;;;;;;;;;;;;;;20.12;29.01;102076.78;4572670;26;20351;-73